Boynton Beach, FL (33435)

1:14 AM EDT on May 28, 2017 (GMT -0400)
Ocean Ridge | | Change Station

Elev 0 ft 26.53 °N, 80.05 °W | Updated 29 seconds ago

Partly Cloudy
Partly Cloudy
82.0 °F
Feels Like 92 °F
N
0.0
Wind Variable Wind from North
Gusts 0.0 mph

Today
High -- | Low -- °F
--% Chance of Precip.
Yesterday
High -- | Low -- °F
Precip. -- in
Pressure 30.01 in
Visibility 10.0 miles
Clouds Few 2500 ft
Few 4000 ft
Heat Index 92 °F
Dew Point 79 °F
Humidity 91%
Rainfall 0.00 in
Snow Depth Not available.
6:28 AM 8:07 PM
Waxing Crescent, 9% visible
METAR KPBI 280453Z 18004KT 10SM FEW025 FEW040 27/23 A3001 RMK AO2 SLP161 T02720233 403390239
Pressure 30.01 in
Visibility 10.0 miles
Clouds Few 2500 ft
Few 4000 ft
Heat Index 92 °F
Dew Point 79 °F
Humidity 91%
Rainfall 0.00 in
Snow Depth Not available.
6:28 AM 8:07 PM
Waxing Crescent, 9% visible
METAR KPBI 280453Z 18004KT 10SM FEW025 FEW040 27/23 A3001 RMK AO2 SLP161 T02720233 403390239

Get Severe Weather Alerts

Thanks for signing up!

Be on the lookout for a verification email in your inbox.

You'll start receiving the daily forecast at 6 AM.

×

10-Day Weather Forecast

Almanac

Astronomy

May. 28, 2017 Rise Set
Actual Time
Civil Twilight
Nautical Twilight
Astronomical Twilight
Moon
Length of Visible Light
Length of Day
Tomorrow will be .
, % of the Moon is Illuminated

Today's Extremes

State Highs State Lows

Community

WunderPhotos

Category 6

Welcome to Category 6. This is the collective home for Weather Underground's featured writeups by Dr. Jeff Masters (right), Bob Henson (left), Chris Burt, and other regular contributors.

Nearby

Air Quality

  Air Quality AQ Index Pollutant
Not available.

Snow Depth

Station Depth Elevation

Earthquake Activity

City Distance Mag. Time & Date
Minimum magnitude displayed is 2.5.

Coastal Water Temperatures

Place Temperature

Stations

Nearby Weather Stations

Station Location Temp. Windchill Dew Point Humidity Wind Precip. Elev Updated Type
                   

Watches & Warnings

There are currently no watches in effect.